Time;durP1;ratioP1;P1;durP2;ratioP2;P2;SDS_P1;SDS_P2;PMS_P1;PMS_P2;Temp;Humidity;BMP_temperature;BMP_pressure;BME280_temperature;BME280_humidity;BME280_pressure;Samples;Min_cycle;Max_cycle;Signal;HPM_P1;HPM_P2
2022/07/27 00:02:17;;;;;;;3.88;0.80;;;17.40;99.90;;;;;;4999227;28;20041;-70
2022/07/27 00:04:43;;;;;;;3.97;0.65;;;17.40;99.90;;;;;;5016316;28;20069;-69
2022/07/27 00:07:09;;;;;;;3.45;0.77;;;17.30;99.90;;;;;;4999471;28;20033;-70
2022/07/27 00:09:34;;;;;;;3.28;0.73;;;17.30;99.90;;;;;;5016851;28;20080;-69
2022/07/27 00:18:43;;;;;;;5.82;0.70;;;17.20;99.90;;;;;;5392867;22;20441;-70
2022/07/27 00:21:09;;;;;;;9.85;1.20;;;17.20;99.90;;;;;;5023285;28;20059;-70
2022/07/27 00:23:34;;;;;;;6.22;0.68;;;17.20;99.90;;;;;;4988384;28;20073;-69
2022/07/27 00:26:00;;;;;;;3.97;0.60;;;17.20;99.90;;;;;;5036460;28;20046;-70
2022/07/27 00:28:26;;;;;;;9.68;0.95;;;17.20;99.90;;;;;;5036457;28;20386;-69
2022/07/27 00:30:51;;;;;;;2.53;0.52;;;17.30;99.90;;;;;;5036464;28;20037;-70
2022/07/27 00:33:17;;;;;;;5.10;0.63;;;17.20;99.90;;;;;;5036465;28;20374;-69
2022/07/27 00:35:43;;;;;;;2.53;0.57;;;17.20;99.90;;;;;;5036086;28;20068;-70
2022/07/27 00:38:09;;;;;;;4.53;0.60;;;17.30;99.90;;;;;;5036543;28;20125;-70
2022/07/27 00:40:34;;;;;;;5.75;0.82;;;17.30;99.90;;;;;;5035210;28;20117;-70
2022/07/27 00:43:00;;;;;;;4.05;0.63;;;17.20;99.90;;;;;;5036242;28;20071;-69
2022/07/27 00:45:25;;;;;;;6.47;0.63;;;17.20;99.90;;;;;;5036349;28;20034;-69
2022/07/27 00:47:51;;;;;;;2.35;0.73;;;17.20;99.90;;;;;;5035907;28;20039;-69
2022/07/27 00:50:17;;;;;;;3.58;0.68;;;17.30;99.90;;;;;;5036128;28;20073;-70
2022/07/27 00:52:42;;;;;;;3.78;0.52;;;17.30;99.90;;;;;;5036254;28;20083;-69
2022/07/27 00:55:08;;;;;;;4.57;0.80;;;17.30;99.90;;;;;;5036325;28;20045;-69
2022/07/27 00:57:34;;;;;;;2.03;0.70;;;17.30;99.90;;;;;;5018929;28;20323;-69
2022/07/27 01:00:00;;;;;;;3.80;0.65;;;17.20;99.90;;;;;;5037636;28;20496;-70
2022/07/27 01:02:27;;;;;;;4.30;1.02;;;17.20;99.90;;;;;;5039993;28;20048;-69
2022/07/27 01:04:53;;;;;;;3.05;0.70;;;17.10;99.90;;;;;;5040139;28;20065;-70
2022/07/27 01:07:20;;;;;;;5.72;0.70;;;17.10;99.90;;;;;;5038770;28;20080;-70
2022/07/27 01:09:58;;;;;;;2.08;0.40;;;17.10;99.90;;;;;;5039724;28;20526;-70
2022/07/27 01:12:32;;;;;;;2.33;0.70;;;17.00;99.90;;;;;;5039236;28;20071;-69
2022/07/27 01:14:59;;;;;;;4.72;0.50;;;16.90;99.90;;;;;;5039798;28;20129;-70
2022/07/27 01:17:29;;;;;;;2.55;0.55;;;16.80;99.90;;;;;;5039248;28;20065;-70
2022/07/27 01:19:56;;;;;;;7.15;1.05;;;16.80;99.90;;;;;;5039663;28;20091;-70
2022/07/27 01:22:22;;;;;;;4.20;0.82;;;16.90;99.90;;;;;;5039667;28;20094;-70
2022/07/27 01:24:49;;;;;;;3.50;0.70;;;16.90;99.90;;;;;;5039590;28;20437;-70
2022/07/27 01:27:15;;;;;;;4.28;0.70;;;16.90;99.90;;;;;;5039705;28;20037;-69
2022/07/27 01:29:41;;;;;;;4.10;0.80;;;16.90;99.90;;;;;;5039468;28;20060;-69
2022/07/27 01:32:07;;;;;;;4.53;0.60;;;16.80;99.90;;;;;;5039281;28;20507;-70
2022/07/27 01:34:33;;;;;;;3.22;0.50;;;16.70;99.90;;;;;;5039552;28;20124;-70
2022/07/27 01:37:03;;;;;;;6.05;0.85;;;16.70;99.90;;;;;;5039359;28;20041;-69
2022/07/27 01:39:30;;;;;;;4.03;0.68;;;16.70;99.90;;;;;;5039444;28;20098;-70
2022/07/27 01:41:56;;;;;;;4.22;0.80;;;16.70;99.90;;;;;;5039359;28;20037;-70
2022/07/27 01:44:22;;;;;;;3.83;1.17;;;16.70;99.90;;;;;;5039504;28;20434;-70
2022/07/27 01:46:47;;;;;;;3.53;0.80;;;16.70;99.90;;;;;;5039383;28;20045;-69
2022/07/27 01:49:13;;;;;;;3.00;0.90;;;16.60;99.90;;;;;;5038998;28;20033;-69
2022/07/27 01:51:39;;;;;;;2.33;0.80;;;16.70;99.90;;;;;;5039115;28;20041;-69
2022/07/27 01:54:05;;;;;;;4.47;0.85;;;16.60;99.90;;;;;;5038064;28;20045;-70
2022/07/27 01:56:30;;;;;;;6.45;0.90;;;16.60;99.90;;;;;;5039259;28;20065;-69
2022/07/27 01:58:57;;;;;;;4.47;1.20;;;16.60;99.90;;;;;;5038865;28;20422;-70
2022/07/27 02:01:23;;;;;;;1.88;0.52;;;16.50;99.90;;;;;;5039105;28;20111;-70
2022/07/27 02:03:49;;;;;;;4.25;0.80;;;16.50;99.90;;;;;;5038846;28;20045;-69
2022/07/27 02:06:15;;;;;;;3.38;0.70;;;16.40;99.90;;;;;;5039018;28;20034;-69
2022/07/27 02:08:40;;;;;;;2.30;0.70;;;16.40;99.90;;;;;;5038785;28;20045;-69
2022/07/27 02:13:50;;;;;;;4.30;0.95;;;16.30;99.90;;;;;;5038933;28;20057;-70
2022/07/27 02:16:17;;;;;;;3.15;0.80;;;16.20;99.90;;;;;;5038729;28;20041;-70
2022/07/27 02:18:43;;;;;;;3.08;0.80;;;16.20;99.90;;;;;;5037940;28;20065;-69
2022/07/27 02:21:09;;;;;;;5.63;1.45;;;16.10;99.90;;;;;;5038710;28;20163;-69
2022/07/27 02:23:36;;;;;;;3.38;0.70;;;16.00;99.90;;;;;;5038557;28;20037;-69
2022/07/27 02:26:03;;;;;;;3.33;0.75;;;16.10;99.90;;;;;;5038354;28;20048;-70
2022/07/27 02:28:29;;;;;;;5.50;1.63;;;16.00;99.90;;;;;;5038450;28;20034;-70
2022/07/27 02:30:55;;;;;;;3.97;1.00;;;16.00;99.90;;;;;;5038481;28;20415;-70
2022/07/27 02:33:20;;;;;;;3.17;0.80;;;16.00;99.90;;;;;;5038466;28;20311;-70
2022/07/27 02:35:46;;;;;;;3.03;0.90;;;15.90;99.90;;;;;;5038412;28;20083;-69
2022/07/27 02:38:12;;;;;;;3.13;0.90;;;15.90;99.90;;;;;;5038235;28;20042;-70
2022/07/27 02:40:37;;;;;;;3.22;0.88;;;15.80;99.90;;;;;;5038071;28;20041;-71
2022/07/27 02:43:03;;;;;;;6.78;1.13;;;15.80;99.90;;;;;;5038224;28;20072;-70
2022/07/27 02:45:29;;;;;;;5.07;0.82;;;15.70;99.90;;;;;;5038361;28;20422;-69
2022/07/27 02:47:54;;;;;;;2.22;0.90;;;15.70;99.90;;;;;;5037623;28;20051;-69
2022/07/27 02:50:21;;;;;;;5.95;0.85;;;15.70;99.90;;;;;;5038173;28;20132;-69
2022/07/27 02:52:46;;;;;;;5.00;1.25;;;15.80;99.90;;;;;;5038218;28;20094;-69
2022/07/27 02:55:12;;;;;;;4.28;0.85;;;15.80;99.90;;;;;;5020542;28;20376;-70
2022/07/27 02:57:39;;;;;;;3.95;1.05;;;15.90;99.90;;;;;;5037720;28;20056;-69
2022/07/27 03:00:11;;;;;;;4.85;1.10;;;15.90;99.90;;;;;;5037794;28;20171;-69
2022/07/27 03:02:37;;;;;;;4.15;1.05;;;15.90;99.90;;;;;;5038059;28;20049;-69
2022/07/27 03:05:07;;;;;;;4.78;0.90;;;15.90;99.90;;;;;;5037663;28;20053;-70
2022/07/27 03:07:33;;;;;;;4.20;1.10;;;15.80;99.90;;;;;;5020150;28;20341;-69
2022/07/27 03:09:59;;;;;;;2.80;1.10;;;15.90;99.90;;;;;;5037525;28;20041;-70
2022/07/27 03:12:24;;;;;;;3.88;0.80;;;16.00;99.90;;;;;;5037684;28;20049;-70
2022/07/27 03:14:50;;;;;;;4.68;0.90;;;16.10;99.90;;;;;;5037780;28;20033;-70
2022/07/27 03:17:16;;;;;;;4.13;1.10;;;16.00;99.90;;;;;;5036915;28;20043;-70
2022/07/27 03:19:42;;;;;;;4.20;1.00;;;16.10;99.90;;;;;;5037436;28;20068;-70
2022/07/27 03:22:07;;;;;;;5.50;1.38;;;16.20;99.90;;;;;;5036608;28;20083;-69
2022/07/27 03:24:33;;;;;;;3.25;1.10;;;16.20;99.90;;;;;;5037377;28;20410;-70
2022/07/27 03:26:59;;;;;;;5.43;1.20;;;16.10;99.90;;;;;;5037392;28;20108;-69
2022/07/27 03:29:24;;;;;;;3.63;1.40;;;16.10;99.90;;;;;;5037475;28;20048;-70
2022/07/27 03:31:50;;;;;;;6.53;0.98;;;16.10;99.90;;;;;;5037119;28;20037;-69
2022/07/27 03:34:16;;;;;;;5.32;1.20;;;16.10;99.90;;;;;;5037163;28;20073;-70
2022/07/27 03:36:42;;;;;;;4.05;1.00;;;16.10;99.90;;;;;;5019819;28;20076;-70
2022/07/27 03:39:08;;;;;;;3.08;1.00;;;16.20;99.90;;;;;;5037024;28;20042;-71
2022/07/27 03:41:34;;;;;;;4.82;1.10;;;16.30;99.90;;;;;;5037272;28;20037;-71
2022/07/27 03:43:59;;;;;;;3.78;0.93;;;16.30;99.90;;;;;;5035967;28;20465;-70
2022/07/27 03:46:25;;;;;;;5.40;1.05;;;16.30;99.90;;;;;;5037208;28;20037;-69
2022/07/27 03:48:51;;;;;;;6.90;1.50;;;16.40;99.90;;;;;;5036661;28;20091;-69
2022/07/27 03:51:16;;;;;;;4.13;1.20;;;16.40;99.90;;;;;;5019598;28;20041;-69
2022/07/27 03:53:42;;;;;;;6.95;1.10;;;16.30;99.90;;;;;;5036741;28;20083;-69
2022/07/27 03:56:07;;;;;;;4.57;1.27;;;16.30;99.90;;;;;;5037041;28;20047;-70
2022/07/27 03:58:33;;;;;;;6.63;1.90;;;16.30;99.90;;;;;;5036880;28;20068;-69
2022/07/27 04:00:59;;;;;;;3.35;1.15;;;16.30;99.90;;;;;;5019361;28;20033;-70
2022/07/27 04:03:24;;;;;;;6.72;1.40;;;16.40;99.90;;;;;;5036822;28;20037;-70
2022/07/27 04:05:50;;;;;;;2.75;0.90;;;16.40;99.90;;;;;;5036687;28;20037;-69
2022/07/27 04:08:16;;;;;;;5.88;1.27;;;16.40;99.90;;;;;;5036542;28;20045;-70
2022/07/27 04:10:42;;;;;;;4.88;1.52;;;16.40;99.90;;;;;;5036502;28;20042;-69
2022/07/27 04:13:10;;;;;;;6.95;1.25;;;16.40;99.90;;;;;;5036806;28;20077;-70
2022/07/27 04:15:36;;;;;;;3.08;1.02;;;16.30;99.90;;;;;;5036558;28;20371;-70
2022/07/27 04:18:01;;;;;;;5.53;1.23;;;16.40;99.90;;;;;;5018656;28;20088;-70
2022/07/27 04:20:27;;;;;;;5.07;1.10;;;16.40;99.90;;;;;;5036386;28;20093;-69
2022/07/27 04:22:53;;;;;;;9.30;1.77;;;16.40;99.90;;;;;;5036269;28;20120;-69
2022/07/27 04:25:19;;;;;;;5.20;1.20;;;16.50;99.90;;;;;;5036629;28;20380;-70
2022/07/27 04:27:46;;;;;;;6.72;1.17;;;16.30;99.90;;;;;;5036277;28;20423;-69
2022/07/27 04:30:12;;;;;;;6.82;1.27;;;16.30;99.90;;;;;;5036582;28;20049;-69
2022/07/27 04:32:38;;;;;;;2.42;1.30;;;16.30;99.90;;;;;;5036540;28;20110;-69
2022/07/27 04:35:05;;;;;;;7.28;1.83;;;16.40;99.90;;;;;;5039979;28;20041;-70
2022/07/27 04:37:32;;;;;;;2.97;1.10;;;16.40;99.90;;;;;;5040548;28;20049;-70
2022/07/27 04:39:58;;;;;;;5.97;1.08;;;16.40;99.90;;;;;;5022750;28;20418;-70
2022/07/27 04:42:23;;;;;;;3.72;1.17;;;16.40;99.90;;;;;;5040561;28;20120;-69
2022/07/27 04:44:49;;;;;;;5.15;1.40;;;16.40;99.90;;;;;;5040205;28;20304;-69
2022/07/27 04:47:15;;;;;;;4.57;1.27;;;16.40;99.90;;;;;;5039995;28;20040;-70
2022/07/27 04:49:40;;;;;;;4.57;1.40;;;16.30;99.90;;;;;;5040198;28;20045;-70
2022/07/27 04:52:06;;;;;;;3.33;1.17;;;16.30;99.90;;;;;;5040105;28;20430;-70
2022/07/27 04:54:32;;;;;;;4.18;1.50;;;16.40;99.90;;;;;;5040282;28;20423;-70
2022/07/27 04:56:57;;;;;;;3.45;1.25;;;16.30;99.90;;;;;;5039695;28;20037;-69
2022/07/27 04:59:23;;;;;;;7.07;1.63;;;16.40;99.90;;;;;;5040075;28;20072;-70
2022/07/27 05:01:49;;;;;;;6.53;1.50;;;16.50;99.90;;;;;;5040207;28;20406;-70
2022/07/27 05:04:14;;;;;;;5.45;1.30;;;16.30;99.90;;;;;;5022814;28;20064;-69
2022/07/27 05:06:40;;;;;;;6.80;2.40;;;16.40;99.90;;;;;;5040011;28;20108;-70
2022/07/27 05:09:06;;;;;;;8.75;1.17;;;16.50;99.90;;;;;;5040132;28;20044;-70
2022/07/27 05:11:31;;;;;;;8.20;1.80;;;16.50;99.90;;;;;;5039705;28;20124;-69
2022/07/27 05:13:57;;;;;;;7.28;1.75;;;16.50;99.90;;;;;;5039989;28;20037;-69
2022/07/27 05:16:23;;;;;;;11.45;2.17;;;16.20;99.90;;;;;;5039588;28;20422;-69
2022/07/27 05:18:48;;;;;;;9.88;2.08;;;16.00;99.90;;;;;;5039113;28;20049;-69
2022/07/27 05:21:14;;;;;;;8.88;2.28;;;16.00;99.90;;;;;;5039491;28;20091;-70
2022/07/27 05:23:40;;;;;;;13.77;2.58;;;16.20;99.90;;;;;;5039475;28;20049;-69
2022/07/27 05:26:06;;;;;;;13.48;2.08;;;16.10;99.90;;;;;;5039470;28;20056;-70
2022/07/27 05:28:32;;;;;;;7.68;2.50;;;16.00;99.90;;;;;;5039675;28;20041;-69
2022/07/27 05:30:57;;;;;;;7.30;2.33;;;16.00;99.90;;;;;;5039573;28;20096;-69
2022/07/27 05:33:24;;;;;;;8.43;1.83;;;16.20;99.90;;;;;;5039443;28;20033;-70
2022/07/27 05:35:50;;;;;;;7.75;1.80;;;16.30;99.90;;;;;;5039472;28;20496;-69
2022/07/27 05:38:15;;;;;;;4.95;1.40;;;16.30;99.90;;;;;;5039415;28;20045;-69
2022/07/27 05:40:44;;;;;;;10.13;1.63;;;16.20;99.90;;;;;;5039267;28;20041;-70
2022/07/27 05:43:09;;;;;;;4.63;1.55;;;16.10;99.90;;;;;;5039190;28;20095;-69
2022/07/27 05:45:35;;;;;;;7.78;1.73;;;16.20;99.90;;;;;;5038502;28;20041;-69
2022/07/27 05:48:00;;;;;;;4.50;1.20;;;16.30;99.90;;;;;;5038844;28;20037;-70
2022/07/27 05:50:26;;;;;;;9.50;1.60;;;16.50;99.90;;;;;;5038980;28;20064;-70
2022/07/27 05:52:52;;;;;;;3.60;1.00;;;16.60;99.90;;;;;;5038514;28;20057;-70
2022/07/27 05:55:17;;;;;;;11.48;1.90;;;16.80;99.90;;;;;;5039236;28;20484;-70
2022/07/27 05:57:43;;;;;;;6.63;1.60;;;16.90;99.90;;;;;;5039155;28;20441;-70
2022/07/27 06:00:10;;;;;;;7.00;1.60;;;17.00;99.90;;;;;;5038792;28;20091;-70
2022/07/27 06:02:36;;;;;;;5.28;1.40;;;17.00;99.90;;;;;;5039091;28;20041;-70
2022/07/27 06:05:02;;;;;;;7.93;1.58;;;17.00;99.90;;;;;;5038784;28;20030;-70
2022/07/27 06:10:12;;;;;;;6.65;1.42;;;16.90;99.90;;;;;;5038970;28;20080;-70
2022/07/27 06:12:39;;;;;;;6.45;1.48;;;17.00;99.90;;;;;;5038800;28;20088;-70
2022/07/27 06:15:07;;;;;;;5.65;1.10;;;17.20;99.90;;;;;;5038736;28;20089;-70
2022/07/27 06:17:33;;;;;;;5.82;1.20;;;17.20;99.90;;;;;;5038186;28;20153;-70
2022/07/27 06:19:59;;;;;;;4.13;1.20;;;17.30;99.90;;;;;;5038445;28;20128;-70
2022/07/27 06:22:25;;;;;;;5.43;1.35;;;17.30;99.90;;;;;;5038648;28;20354;-70
2022/07/27 06:24:50;;;;;;;7.80;1.40;;;17.40;99.90;;;;;;5037751;28;20045;-70
2022/07/27 06:27:16;;;;;;;9.35;1.35;;;17.50;99.90;;;;;;5038388;28;20419;-70
2022/07/27 06:29:42;;;;;;;8.30;1.58;;;17.50;99.90;;;;;;5038232;28;20338;-70
2022/07/27 06:32:08;;;;;;;4.15;1.55;;;17.50;99.90;;;;;;5038416;28;20073;-70
2022/07/27 06:34:34;;;;;;;9.77;1.40;;;17.70;99.90;;;;;;5038219;28;20438;-70
2022/07/27 06:36:59;;;;;;;6.00;1.05;;;17.70;99.90;;;;;;5038470;28;20042;-70
2022/07/27 06:39:26;;;;;;;5.50;1.10;;;17.80;99.90;;;;;;5038303;28;20044;-70
2022/07/27 06:41:51;;;;;;;7.43;1.00;;;17.90;99.90;;;;;;5038250;28;20041;-70
2022/07/27 06:44:17;;;;;;;7.28;1.40;;;18.00;99.90;;;;;;5038358;28;20040;-70
2022/07/27 06:46:43;;;;;;;9.60;1.20;;;18.20;99.90;;;;;;5038332;28;20045;-70
2022/07/27 06:49:08;;;;;;;3.78;1.05;;;18.00;99.90;;;;;;5020008;28;20100;-70
2022/07/27 06:51:34;;;;;;;4.40;1.02;;;18.30;99.90;;;;;;5038208;28;20041;-70
2022/07/27 06:54:00;;;;;;;7.70;1.33;;;18.60;99.90;;;;;;5038227;28;20492;-70
2022/07/27 06:56:26;;;;;;;10.15;1.38;;;18.60;99.90;;;;;;5037908;28;20045;-70
2022/07/27 06:58:51;;;;;;;4.80;1.00;;;18.60;99.90;;;;;;5037804;28;20316;-70
2022/07/27 07:01:17;;;;;;;5.78;0.95;;;18.50;99.90;;;;;;5037989;28;20419;-70
2022/07/27 07:03:43;;;;;;;4.72;0.80;;;18.60;99.90;;;;;;5037846;28;20377;-70
2022/07/27 07:06:09;;;;;;;6.68;0.98;;;18.70;99.90;;;;;;5037606;28;20038;-69
2022/07/27 07:08:35;;;;;;;6.93;0.90;;;18.80;99.90;;;;;;5037849;28;20040;-70
2022/07/27 07:11:00;;;;;;;8.77;1.33;;;18.70;99.90;;;;;;5036432;28;20350;-70
2022/07/27 07:13:26;;;;;;;8.55;1.20;;;18.40;99.90;;;;;;5037724;28;20038;-69
2022/07/27 07:15:52;;;;;;;11.52;1.05;;;18.50;99.90;;;;;;5037546;28;20069;-69
2022/07/27 07:18:20;;;;;;;5.43;1.20;;;18.50;99.90;;;;;;5036832;28;20065;-69
2022/07/27 07:20:46;;;;;;;8.98;1.27;;;18.40;99.90;;;;;;5020225;28;20045;-70
2022/07/27 07:23:12;;;;;;;6.45;1.10;;;18.70;99.90;;;;;;5037468;28;20037;-69
2022/07/27 07:25:38;;;;;;;8.20;0.85;;;18.80;99.90;;;;;;5038144;28;20418;-70
2022/07/27 07:28:05;;;;;;;7.32;0.80;;;18.90;99.90;;;;;;5039742;28;20079;-71
2022/07/27 07:30:31;;;;;;;12.93;1.60;;;18.80;99.90;;;;;;5037110;28;20077;-71
2022/07/27 07:32:57;;;;;;;5.63;1.08;;;18.90;99.90;;;;;;5036012;28;20085;-70
2022/07/27 07:35:23;;;;;;;10.20;1.15;;;19.00;99.90;;;;;;5035835;28;20287;-70
2022/07/27 07:37:49;;;;;;;4.90;1.00;;;19.20;99.90;;;;;;5037122;28;20429;-70
2022/07/27 07:40:15;;;;;;;6.63;1.17;;;19.30;99.90;;;;;;5036955;28;20047;-70
2022/07/27 07:43:07;;;;;;;7.00;1.20;;;19.00;99.90;;;;;;5037087;28;20120;-70
2022/07/27 07:45:36;;;;;;;5.22;1.08;;;18.70;99.90;;;;;;5033278;28;20053;-70
2022/07/27 07:48:04;;;;;;;4.88;1.08;;;18.50;99.90;;;;;;5036498;28;20040;-70
2022/07/27 07:50:30;;;;;;;8.65;1.10;;;18.60;99.90;;;;;;5037195;28;20037;-70
2022/07/27 07:52:55;;;;;;;6.10;1.08;;;18.40;99.90;;;;;;5037002;28;20096;-69
2022/07/27 07:55:22;;;;;;;5.68;0.90;;;18.20;99.90;;;;;;5036919;28;20048;-70
2022/07/27 07:57:48;;;;;;;7.82;1.55;;;17.90;99.90;;;;;;5036647;28;20112;-70
2022/07/27 08:00:15;;;;;;;5.13;1.10;;;18.00;99.90;;;;;;5036879;28;20044;-70
2022/07/27 08:02:49;;;;;;;6.00;1.08;;;18.10;99.90;;;;;;5036643;28;20048;-70
2022/07/27 08:05:16;;;;;;;5.47;1.08;;;18.20;99.90;;;;;;5036843;28;20086;-70
2022/07/27 08:07:42;;;;;;;5.53;0.80;;;18.30;99.90;;;;;;5036574;28;20041;-71
2022/07/27 08:10:10;;;;;;;7.15;1.15;;;18.40;99.90;;;;;;5036348;28;20037;-69
2022/07/27 08:12:38;;;;;;;10.82;1.15;;;18.20;99.90;;;;;;5036550;28;20423;-70
2022/07/27 08:15:06;;;;;;;8.68;1.30;;;18.30;99.90;;;;;;5036659;28;20163;-70
2022/07/27 08:17:32;;;;;;;11.35;1.25;;;18.40;99.90;;;;;;5035934;28;20058;-70
2022/07/27 08:19:58;;;;;;;7.15;1.23;;;18.30;99.90;;;;;;5036563;28;20071;-70
2022/07/27 08:22:24;;;;;;;11.85;1.65;;;18.10;99.90;;;;;;5036504;28;20083;-70
2022/07/27 08:24:49;;;;;;;7.43;1.15;;;18.20;99.90;;;;;;5036627;28;20037;-70
2022/07/27 08:27:15;;;;;;;6.10;1.20;;;18.30;99.90;;;;;;5036619;28;20037;-70
2022/07/27 08:29:41;;;;;;;6.25;1.10;;;18.30;99.90;;;;;;5035417;28;20081;-70
2022/07/27 08:32:06;;;;;;;9.20;1.10;;;18.40;99.90;;;;;;5018858;28;20045;-70
2022/07/27 08:34:32;;;;;;;6.40;1.30;;;18.20;99.90;;;;;;5036393;28;20041;-70
2022/07/27 08:36:58;;;;;;;5.18;0.90;;;18.40;99.90;;;;;;5036272;28;20081;-70
2022/07/27 08:39:24;;;;;;;6.22;1.08;;;18.50;99.90;;;;;;5036152;28;20121;-71
2022/07/27 08:41:52;;;;;;;8.68;1.30;;;18.60;99.90;;;;;;5036370;28;20095;-70
2022/07/27 08:44:23;;;;;;;5.13;1.10;;;18.60;99.90;;;;;;5036252;28;20049;-70
2022/07/27 08:46:50;;;;;;;3.70;0.70;;;18.50;99.90;;;;;;5036430;28;20067;-70
2022/07/27 08:49:16;;;;;;;5.18;1.05;;;18.50;99.90;;;;;;5035768;28;20053;-70
2022/07/27 08:51:43;;;;;;;4.55;0.65;;;18.70;99.90;;;;;;5036217;28;20045;-71
2022/07/27 08:54:09;;;;;;;4.93;0.80;;;18.70;99.90;;;;;;5035957;28;20336;-71
2022/07/27 08:56:36;;;;;;;6.03;1.10;;;18.70;99.90;;;;;;5036430;28;20098;-67
2022/07/27 08:59:03;;;;;;;4.35;0.82;;;18.80;99.90;;;;;;5036453;28;20048;-68
2022/07/27 09:01:35;;;;;;;6.22;0.95;;;18.90;99.90;;;;;;5036279;28;20045;-68
2022/07/27 09:04:01;;;;;;;6.57;0.73;;;19.00;99.90;;;;;;5036068;28;20041;-68
2022/07/27 09:06:46;;;;;;;5.72;0.77;;;19.20;99.90;;;;;;5036121;28;20152;-68
2022/07/27 09:09:14;;;;;;;5.63;1.27;;;19.40;99.90;;;;;;5036152;28;20037;-68
2022/07/27 09:11:40;;;;;;;8.68;0.93;;;19.40;99.90;;;;;;5036112;28;20046;-68
2022/07/27 09:14:10;;;;;;;4.97;0.90;;;19.80;99.90;;;;;;5036291;28;20057;-68
2022/07/27 09:16:36;;;;;;;3.53;0.88;;;19.90;99.50;;;;;;5036043;28;20045;-68
2022/07/27 09:19:06;;;;;;;5.03;0.70;;;19.90;99.20;;;;;;5035271;28;20053;-69
2022/07/27 09:21:34;;;;;;;3.63;0.93;;;19.90;99.00;;;;;;5038342;28;20037;-68
2022/07/27 09:24:12;;;;;;;4.80;0.63;;;20.30;99.20;;;;;;5022391;28;20037;-68
2022/07/27 09:26:38;;;;;;;5.70;0.68;;;19.60;99.10;;;;;;5039780;28;20151;-68
2022/07/27 09:29:05;;;;;;;4.07;0.63;;;19.90;99.20;;;;;;5039729;28;20041;-68
2022/07/27 09:31:32;;;;;;;3.03;0.70;;;20.20;99.10;;;;;;5039546;28;20080;-68
2022/07/27 09:34:02;;;;;;;5.07;0.73;;;20.40;98.90;;;;;;5039524;28;20056;-68
2022/07/27 09:36:29;;;;;;;4.32;0.70;;;20.60;98.90;;;;;;5039695;28;20103;-68
2022/07/27 09:39:01;;;;;;;5.22;0.57;;;20.80;98.60;;;;;;5039261;28;20041;-68
2022/07/27 09:41:39;;;;;;;3.03;0.55;;;20.70;98.70;;;;;;5039615;28;20084;-68
2022/07/27 09:44:05;;;;;;;5.93;0.80;;;20.80;98.60;;;;;;5039181;28;20041;-68
2022/07/27 09:46:33;;;;;;;3.58;0.68;;;21.20;98.40;;;;;;5039091;28;20129;-68
2022/07/27 09:49:00;;;;;;;4.45;0.50;;;21.50;98.40;;;;;;5039070;28;20049;-68
2022/07/27 09:51:26;;;;;;;9.10;0.60;;;21.40;98.20;;;;;;5039228;28;20103;-68
2022/07/27 09:53:53;;;;;;;3.88;0.50;;;20.90;98.20;;;;;;5039082;28;20049;-68
2022/07/27 09:56:25;;;;;;;5.45;0.70;;;21.00;98.40;;;;;;5039068;28;20077;-68
2022/07/27 09:58:55;;;;;;;3.20;0.65;;;21.00;97.70;;;;;;5021712;28;20059;-68
2022/07/27 10:01:25;;;;;;;3.63;0.60;;;21.00;98.00;;;;;;5021336;28;20090;-67
2022/07/27 10:03:54;;;;;;;5.13;1.05;;;21.00;97.80;;;;;;5038799;28;20354;-68
2022/07/27 10:06:21;;;;;;;5.38;0.70;;;21.10;97.80;;;;;;5038922;28;20499;-68
2022/07/27 10:08:48;;;;;;;5.15;0.77;;;20.80;97.90;;;;;;5038799;28;20073;-67
2022/07/27 10:11:16;;;;;;;3.65;0.80;;;21.00;97.70;;;;;;5039050;28;20033;-68
2022/07/27 10:13:42;;;;;;;4.28;0.80;;;21.00;97.70;;;;;;5039278;28;20410;-68
2022/07/27 10:16:21;;;;;;;4.45;0.80;;;21.20;97.80;;;;;;5038798;28;20450;-68
2022/07/27 10:19:24;;;;;;;3.42;0.68;;;21.60;98.00;;;;;;5038109;28;20045;-68
2022/07/27 10:21:49;;;;;;;3.17;0.73;;;22.10;98.00;;;;;;5038573;28;20045;-86
2022/07/27 10:24:35;;;;;;;2.10;0.40;;;22.40;98.00;;;;;;5021477;28;20041;-85
2022/07/27 10:27:25;;;;;;;5.07;0.77;;;21.60;97.60;;;;;;5006981;28;20052;-84
2022/07/27 10:29:51;;;;;;;3.30;0.60;;;20.90;97.70;;;;;;5020917;28;20073;-82
2022/07/27 10:32:44;;;;;;;5.13;0.85;;;20.70;97.80;;;;;;5004116;28;20091;-82
2022/07/27 10:35:30;;;;;;;5.20;0.65;;;20.60;97.70;;;;;;5003099;28;20053;-82
2022/07/27 10:38:08;;;;;;;2.63;0.60;;;20.80;98.20;;;;;;5004521;28;20052;-82
2022/07/27 10:40:35;;;;;;;3.15;0.60;;;20.90;97.80;;;;;;5020434;28;20377;-82
2022/07/27 10:43:16;;;;;;;3.78;0.65;;;21.00;97.80;;;;;;5020933;28;20394;-82
2022/07/27 10:45:50;;;;;;;2.00;0.57;;;20.90;97.70;;;;;;5020624;28;20041;-67
2022/07/27 10:48:38;;;;;;;3.40;0.63;;;20.70;97.50;;;;;;5037704;28;20046;-68
2022/07/27 10:51:08;;;;;;;5.40;0.52;;;21.00;97.50;;;;;;5038155;28;20042;-68
2022/07/27 10:53:37;;;;;;;2.17;0.40;;;21.00;97.40;;;;;;5038105;28;20044;-68
2022/07/27 10:56:04;;;;;;;3.67;0.47;;;20.90;97.20;;;;;;5038026;28;20084;-69
2022/07/27 10:58:29;;;;;;;2.92;0.43;;;21.00;97.20;;;;;;5037864;28;20049;-68
2022/07/27 11:00:55;;;;;;;5.13;0.70;;;21.00;97.20;;;;;;5037812;28;20045;-68
2022/07/27 11:03:23;;;;;;;3.50;0.45;;;20.90;97.40;;;;;;5037741;28;20133;-67
2022/07/27 11:05:55;;;;;;;4.93;0.60;;;20.90;97.30;;;;;;5037697;28;20053;-67
2022/07/27 11:08:29;;;;;;;8.20;0.80;;;21.10;97.40;;;;;;5020395;28;20041;-67
2022/07/27 11:10:55;;;;;;;2.75;0.30;;;21.30;97.10;;;;;;5037759;28;20048;-67
2022/07/27 11:13:22;;;;;;;2.83;0.52;;;21.40;97.40;;;;;;5037741;28;20049;-67
2022/07/27 11:16:03;;;;;;;2.47;0.50;;;21.60;97.20;;;;;;5037418;28;20052;-66
2022/07/27 11:19:01;;;;;;;1.80;0.50;;;21.90;97.30;;;;;;5036950;28;20050;-67
2022/07/27 11:21:32;;;;;;;1.05;0.35;;;22.50;97.30;;;;;;5034340;28;20049;-70
2022/07/27 11:24:02;;;;;;;3.33;0.50;;;22.80;96.70;;;;;;5037465;28;20115;-67
2022/07/27 11:26:30;;;;;;;2.28;0.30;;;22.60;96.50;;;;;;5037342;28;20072;-68
2022/07/27 11:28:56;;;;;;;3.95;0.40;;;22.10;96.40;;;;;;5037417;28;20041;-68
2022/07/27 11:31:21;;;;;;;1.95;0.28;;;21.90;96.90;;;;;;5037313;28;20430;-68
2022/07/27 11:33:54;;;;;;;3.83;0.32;;;21.70;96.70;;;;;;5036243;28;20081;-68
2022/07/27 11:36:21;;;;;;;2.03;0.50;;;21.80;96.90;;;;;;5037206;28;20120;-68
2022/07/27 11:38:48;;;;;;;4.57;0.60;;;21.80;97.30;;;;;;5037203;28;20134;-68
2022/07/27 11:41:28;;;;;;;2.70;0.57;;;21.90;97.50;;;;;;5037321;28;20053;-68
2022/07/27 11:44:01;;;;;;;4.30;0.52;;;22.60;97.70;;;;;;5036448;28;20045;-68
2022/07/27 11:46:29;;;;;;;4.55;0.65;;;22.90;97.00;;;;;;5037006;28;20041;-68
2022/07/27 11:49:05;;;;;;;1.88;0.30;;;23.00;97.00;;;;;;5019119;28;20041;-68
2022/07/27 11:51:31;;;;;;;2.60;0.60;;;22.80;96.80;;;;;;5036911;28;20048;-68
2022/07/27 11:54:08;;;;;;;2.15;0.40;;;22.40;97.00;;;;;;5037076;28;20116;-68
2022/07/27 11:56:37;;;;;;;2.75;0.40;;;22.10;97.30;;;;;;5036781;28;20473;-68
2022/07/27 11:59:12;;;;;;;4.13;0.55;;;21.90;96.80;;;;;;5036841;28;20116;-68
2022/07/27 12:01:43;;;;;;;4.55;0.63;;;22.10;97.30;;;;;;5036873;28;20045;-68
2022/07/27 12:04:14;;;;;;;3.28;0.50;;;22.10;97.00;;;;;;5036735;28;20385;-68
2022/07/27 12:06:43;;;;;;;2.00;0.60;;;22.10;97.20;;;;;;5036986;28;20061;-68
2022/07/27 12:09:12;;;;;;;3.20;0.77;;;22.30;97.50;;;;;;5036779;28;20119;-68
2022/07/27 12:11:52;;;;;;;2.90;0.40;;;22.30;97.60;;;;;;5036885;28;20040;-68
2022/07/27 12:14:35;;;;;;;2.30;0.50;;;22.60;97.50;;;;;;5035886;28;20187;-84
2022/07/27 12:17:19;;;;;;;3.55;0.85;;;23.30;97.50;;;;;;5036496;28;20430;-70
2022/07/27 12:20:13;;;;;;;4.32;0.50;;;23.30;96.90;;;;;;5036118;28;20084;-69
2022/07/27 12:22:48;;;;;;;4.95;0.52;;;22.90;97.40;;;;;;5034076;28;20056;-70
2022/07/27 12:25:16;;;;;;;3.80;0.40;;;22.50;97.10;;;;;;5036738;28;20053;-69
2022/07/27 12:28:05;;;;;;;3.35;0.45;;;22.00;97.30;;;;;;5036297;28;20073;-69
2022/07/27 12:30:47;;;;;;;5.82;0.60;;;21.90;97.50;;;;;;5036443;28;20088;-69
2022/07/27 12:33:35;;;;;;;3.42;0.70;;;22.20;97.60;;;;;;5036232;28;20120;-69
2022/07/27 12:36:03;;;;;;;2.70;0.47;;;22.60;97.80;;;;;;5036322;28;20045;-69
2022/07/27 12:38:49;;;;;;;7.35;0.82;;;23.60;97.40;;;;;;5036437;28;20366;-70
2022/07/27 12:41:29;;;;;;;7.37;0.67;;;24.30;97.00;;;;;;5036480;28;20048;-69
2022/07/27 12:44:09;;;;;;;3.22;0.60;;;24.40;97.20;;;;;;5036411;28;20493;-70
2022/07/27 12:46:55;;;;;;;2.90;0.60;;;23.30;96.50;;;;;;5036477;28;20073;-68
2022/07/27 12:49:24;;;;;;;3.65;0.43;;;22.80;96.70;;;;;;5036206;28;20038;-69
2022/07/27 12:51:50;;;;;;;4.40;0.55;;;22.80;97.30;;;;;;5036223;28;20131;-69
2022/07/27 12:54:16;;;;;;;4.00;0.55;;;22.80;96.80;;;;;;5036548;28;20454;-69
2022/07/27 12:56:42;;;;;;;4.68;0.93;;;23.10;97.00;;;;;;5040289;28;20046;-69
2022/07/27 12:59:08;;;;;;;5.65;0.75;;;22.70;96.80;;;;;;5039261;28;20330;-69
2022/07/27 13:01:34;;;;;;;6.75;0.98;;;23.20;97.00;;;;;;5039205;28;20050;-69
2022/07/27 13:04:00;;;;;;;3.35;0.55;;;23.30;96.90;;;;;;5040302;28;20369;-70